Time;durP1;ratioP1;P1;durP2;ratioP2;P2;SDS_P1;SDS_P2;PMS_P1;PMS_P2;Temp;Humidity;BMP_temperature;BMP_pressure;BME280_temperature;BME280_humidity;BME280_pressure;Samples;Min_cycle;Max_cycle;Signal;HPM_P1;HPM_P2
2022/01/01 00:02:22;;;;;;;116.27;95.10;;;13.80;99.90;;;;;;6122570;23;20366;-86
2022/01/01 00:04:48;;;;;;;111.03;87.80;;;13.70;99.90;;;;;;6122385;23;20386;-86
2022/01/01 00:07:16;;;;;;;108.00;89.53;;;13.70;99.90;;;;;;6096998;23;20386;-86
2022/01/01 00:09:45;;;;;;;115.17;102.73;;;13.80;99.90;;;;;;6122555;23;20147;-85
2022/01/01 00:12:12;;;;;;;106.53;85.07;;;13.70;99.90;;;;;;6122944;23;20370;-85
2022/01/01 00:14:38;;;;;;;108.27;82.53;;;13.70;99.90;;;;;;6096903;23;20402;-85
2022/01/01 00:17:05;;;;;;;109.40;83.03;;;13.70;99.90;;;;;;6096551;23;20394;-85
2022/01/01 00:19:31;;;;;;;106.60;91.63;;;13.70;99.90;;;;;;6097005;23;20852;-86
2022/01/01 00:21:58;;;;;;;108.27;90.97;;;13.70;99.90;;;;;;6096427;23;20385;-86
2022/01/01 00:24:24;;;;;;;107.60;80.50;;;13.70;99.90;;;;;;6096513;23;20205;-86
2022/01/01 00:26:53;;;;;;;109.83;96.67;;;13.70;99.90;;;;;;6122314;23;20371;-86
2022/01/01 00:29:22;;;;;;;110.53;98.53;;;13.70;99.90;;;;;;6122926;23;20366;-86
2022/01/01 00:31:47;;;;;;;108.80;91.90;;;13.70;99.90;;;;;;6096279;23;20418;-86
2022/01/01 00:34:13;;;;;;;113.30;95.60;;;13.70;99.90;;;;;;6122322;23;20807;-85
2022/01/01 00:36:39;;;;;;;113.03;82.20;;;13.70;99.90;;;;;;6122386;23;20602;-85
2022/01/01 00:39:05;;;;;;;109.77;96.40;;;13.70;99.90;;;;;;6096376;23;20197;-86
2022/01/01 00:41:34;;;;;;;110.67;95.03;;;13.60;99.90;;;;;;6122279;23;20143;-86
2022/01/01 00:44:00;;;;;;;114.77;92.47;;;13.60;99.90;;;;;;6122091;23;20397;-85
2022/01/01 00:46:25;;;;;;;117.37;87.67;;;13.70;99.90;;;;;;6122406;23;20375;-86
2022/01/01 00:48:54;;;;;;;115.07;101.50;;;13.70;99.90;;;;;;6096089;23;20234;-86
2022/01/01 00:51:36;;;;;;;;;;;;;;;;;;;;;
2022/01/01 00:54:19;;;;;;;112.70;94.83;;;13.60;99.90;;;;;;6071979;23;20478;-87
2022/01/01 00:56:57;;;;;;;113.63;100.23;;;13.60;99.90;;;;;;6070234;23;20754;-87
2022/01/01 00:59:52;;;;;;;133.27;119.57;;;13.60;99.90;;;;;;6071330;23;20337;-88
2022/01/01 01:02:36;;;;;;;108.10;87.60;;;13.60;99.90;;;;;;6074051;23;20357;-88
2022/01/01 01:05:21;;;;;;;109.90;83.60;;;13.70;99.90;;;;;;6070884;23;20469;-88
2022/01/01 01:07:56;;;;;;;112.87;85.53;;;13.60;99.90;;;;;;6047458;23;20872;-87
2022/01/01 01:11:09;;;;;;;106.45;76.13;;;13.70;99.90;;;;;;6072717;23;20391;-88
2022/01/01 01:14:09;;;;;;;96.07;67.07;;;13.70;99.90;;;;;;6108808;23;20509;-88
2022/01/01 01:16:38;;;;;;;111.97;96.70;;;13.80;99.90;;;;;;6108579;23;20382;-87
2022/01/01 01:19:52;;;;;;;115.10;101.90;;;13.80;99.90;;;;;;6108932;23;20386;-88
2022/01/01 01:22:30;;;;;;;121.97;109.10;;;13.80;99.90;;;;;;6132951;23;20378;-88
2022/01/01 01:25:40;;;;;;;117.70;105.20;;;13.80;99.90;;;;;;6082800;23;20396;-88
2022/01/01 01:28:20;;;;;;;136.57;122.80;;;13.70;99.90;;;;;;6102556;23;20375;-88
2022/01/01 01:30:56;;;;;;;124.93;112.03;;;13.70;99.90;;;;;;6047311;23;20927;-87
2022/01/01 01:33:25;;;;;;;130.35;116.72;;;13.60;99.90;;;;;;6046381;23;20382;-87
2022/01/01 01:36:07;;;;;;;153.67;139.47;;;13.60;99.90;;;;;;6070798;23;20144;-88
2022/01/01 01:38:38;;;;;;;152.20;138.00;;;13.70;99.90;;;;;;6046195;23;20463;-86
2022/01/01 01:41:19;;;;;;;150.27;136.10;;;13.60;99.90;;;;;;6071066;23;20913;-88
2022/01/01 01:44:06;;;;;;;175.20;159.77;;;13.60;99.90;;;;;;6046087;23;20427;-86
2022/01/01 01:47:04;;;;;;;194.23;178.40;;;13.60;99.90;;;;;;6070932;23;20352;-86
2022/01/01 01:49:58;;;;;;;199.47;183.30;;;13.60;99.90;;;;;;6073551;23;20430;-86
2022/01/01 01:52:43;;;;;;;204.13;188.10;;;13.60;99.90;;;;;;6045552;23;20406;-86
2022/01/01 01:55:13;;;;;;;201.13;185.50;;;13.60;99.90;;;;;;6046126;23;20415;-88
2022/01/01 01:58:36;;;;;;;;;;;;;;;;;;;;;
2022/01/01 02:01:41;;;;;;;;;;;;;;;;;;;;;
2022/01/01 02:04:46;;;;;;;205.37;189.07;;;13.50;99.90;;;;;;6066526;23;20420;-88
2022/01/01 02:07:21;;;;;;;247.47;228.93;;;13.60;99.90;;;;;;6045440;23;20398;-86
2022/01/01 02:10:01;;;;;;;195.57;179.63;;;13.50;99.90;;;;;;6044752;23;20379;-86
2022/01/01 02:12:52;;;;;;;;;;;;;;;;;;;;;
2022/01/01 02:18:24;;;;;;;239.30;221.83;;;13.40;99.90;;;;;;6079964;23;20129;-87
2022/01/01 02:21:20;;;;;;;255.80;237.80;;;13.40;99.90;;;;;;6070349;23;20364;-86
2022/01/01 02:24:09;;;;;;;259.33;240.93;;;13.50;99.90;;;;;;6044107;23;20452;-86
2022/01/01 02:27:11;;;;;;;244.93;227.03;;;13.50;99.90;;;;;;6042380;23;20411;-87
2022/01/01 02:30:12;;;;;;;256.87;238.37;;;13.40;99.90;;;;;;6045142;23;20395;-86
2022/01/01 02:33:07;;;;;;;253.13;235.23;;;13.40;99.90;;;;;;6049742;23;20730;-86
2022/01/01 02:35:57;;;;;;;;;;;;;;;;;;;;;
2022/01/01 02:39:18;;;;;;;251.17;233.17;;;13.50;99.90;;;;;;6069847;23;20171;-87
2022/01/01 02:41:59;;;;;;;182.07;166.73;;;13.40;99.90;;;;;;6046539;23;20377;-87
2022/01/01 02:44:53;;;;;;;138.43;124.37;;;13.40;99.90;;;;;;6070779;23;20395;-86
2022/01/01 02:47:35;;;;;;;147.13;133.13;;;13.30;99.90;;;;;;6046443;23;20446;-86
2022/01/01 02:50:18;;;;;;;178.13;163.07;;;13.30;99.90;;;;;;6069906;23;20399;-87
2022/01/01 02:52:56;;;;;;;168.97;154.43;;;13.40;99.90;;;;;;6069671;23;20376;-87
2022/01/01 02:55:48;;;;;;;172.70;157.40;;;13.30;99.90;;;;;;6045452;23;20483;-87
2022/01/01 02:58:26;;;;;;;209.10;192.50;;;13.40;99.90;;;;;;6049430;23;20861;-87
2022/01/01 03:01:00;;;;;;;230.87;213.27;;;13.50;99.90;;;;;;6045119;23;20376;-87
2022/01/01 03:03:38;;;;;;;225.98;208.90;;;13.50;99.90;;;;;;6069424;23;20462;-87
2022/01/01 03:06:04;;;;;;;235.50;218.30;;;13.60;99.90;;;;;;6070275;23;20143;-88
2022/01/01 03:08:40;;;;;;;219.17;202.63;;;13.50;99.90;;;;;;6043754;23;20403;-87
2022/01/01 03:11:21;;;;;;;212.77;196.80;;;13.50;99.90;;;;;;6070490;23;20199;-88
2022/01/01 03:13:58;;;;;;;205.27;189.33;;;13.40;99.90;;;;;;6071417;23;20389;-86
2022/01/01 03:16:38;;;;;;;243.63;226.27;;;13.50;99.90;;;;;;6046251;23;20470;-87
2022/01/01 03:19:29;;;;;;;222.03;205.50;;;13.50;99.90;;;;;;6071197;23;20357;-88
2022/01/01 03:22:04;;;;;;;228.47;211.40;;;13.50;99.90;;;;;;5961858;23;20710;-88
2022/01/01 03:24:41;;;;;;;272.13;253.38;;;13.50;99.90;;;;;;6041197;23;20400;-87
2022/01/01 03:27:13;;;;;;;272.57;254.10;;;13.50;99.90;;;;;;6045829;23;20152;-87
2022/01/01 03:30:29;;;;;;;271.53;252.83;;;13.50;99.90;;;;;;6046200;23;20383;-87
2022/01/01 03:33:12;;;;;;;283.37;264.10;;;13.50;99.90;;;;;;6070539;23;20381;-86
2022/01/01 03:35:48;;;;;;;231.07;214.27;;;13.50;99.90;;;;;;6045318;23;20399;-86
2022/01/01 03:38:31;;;;;;;212.25;195.93;;;13.50;99.90;;;;;;6046004;23;20376;-87
2022/01/01 03:41:05;;;;;;;238.10;220.87;;;13.60;99.90;;;;;;6044573;23;20183;-87
2022/01/01 03:43:47;;;;;;;251.60;232.73;;;13.50;99.90;;;;;;6045909;23;20430;-86
2022/01/01 03:46:17;;;;;;;236.17;218.60;;;13.50;99.90;;;;;;6045746;23;20376;-86
2022/01/01 03:48:54;;;;;;;209.17;192.93;;;13.50;99.90;;;;;;6044641;23;20380;-86
2022/01/01 03:51:27;;;;;;;225.83;209.33;;;13.50;99.90;;;;;;6045094;23;20758;-87
2022/01/01 03:54:42;;;;;;;219.47;202.93;;;13.40;99.90;;;;;;6044567;23;20723;-86
2022/01/01 03:56:46;;;;;;;244.23;226.63;;;13.40;99.90;;;;;;6050735;23;20741;-87
2022/01/01 03:59:15;;;;;;;205.93;190.07;;;13.30;99.90;;;;;;6045883;23;20410;-87
2022/01/01 04:01:48;;;;;;;179.10;164.13;;;13.40;99.90;;;;;;6044444;23;20459;-86
2022/01/01 04:04:28;;;;;;;161.40;147.13;;;13.40;99.90;;;;;;6043103;23;20454;-86
2022/01/01 04:06:57;;;;;;;141.13;127.23;;;13.40;99.90;;;;;;6068779;23;20377;-87
2022/01/01 04:09:23;;;;;;;123.60;111.10;;;13.40;99.90;;;;;;6068486;23;20858;-86
2022/01/01 04:11:51;;;;;;;171.13;155.90;;;13.40;99.90;;;;;;6044165;23;20419;-87
2022/01/01 04:14:19;;;;;;;189.38;173.82;;;13.40;99.90;;;;;;6067738;23;20461;-86
2022/01/01 04:16:50;;;;;;;209.50;192.70;;;13.40;99.90;;;;;;6042734;23;20148;-87
2022/01/01 04:19:15;;;;;;;219.73;203.33;;;13.40;99.90;;;;;;6067900;23;20810;-86
2022/01/01 04:21:41;;;;;;;174.13;158.60;;;13.30;99.90;;;;;;6043375;23;20411;-86
2022/01/01 04:24:10;;;;;;;122.10;109.63;;;13.30;99.90;;;;;;6068269;23;20231;-86
2022/01/01 04:26:49;;;;;;;103.13;84.03;;;13.30;99.90;;;;;;6043296;23;20380;-87
2022/01/01 04:29:14;;;;;;;113.00;87.40;;;13.30;99.90;;;;;;6041778;23;20388;-87
2022/01/01 04:31:46;;;;;;;101.37;81.67;;;13.30;99.90;;;;;;6068298;23;20856;-86
2022/01/01 04:34:15;;;;;;;96.63;61.63;;;13.40;99.90;;;;;;6043437;23;20168;-86
2022/01/01 04:37:10;;;;;;;91.73;56.83;;;13.30;99.90;;;;;;6043144;23;20384;-86
2022/01/01 04:39:46;;;;;;;82.87;38.63;;;13.40;99.90;;;;;;6041274;23;20388;-86
2022/01/01 04:42:24;;;;;;;83.53;38.50;;;13.40;99.90;;;;;;6043409;23;20388;-86
2022/01/01 04:45:01;;;;;;;85.97;35.83;;;13.40;99.90;;;;;;6042582;23;20396;-87
2022/01/01 04:47:30;;;;;;;84.37;39.90;;;13.40;99.90;;;;;;6043124;23;20380;-86
2022/01/01 04:49:59;;;;;;;81.27;35.20;;;13.40;99.90;;;;;;6042712;23;20424;-86
2022/01/01 04:52:25;;;;;;;83.90;41.80;;;13.40;99.90;;;;;;6043208;23;20411;-86
2022/01/01 04:54:50;;;;;;;94.30;64.90;;;13.40;99.90;;;;;;6043363;23;20423;-86
2022/01/01 04:57:30;;;;;;;82.77;34.10;;;13.30;99.90;;;;;;6042230;23;20156;-86
2022/01/01 05:00:16;;;;;;;82.87;28.13;;;13.30;99.90;;;;;;6068924;23;20227;-86
2022/01/01 05:03:03;;;;;;;79.07;28.17;;;13.30;99.90;;;;;;6042550;23;20388;-86
2022/01/01 05:05:38;;;;;;;79.43;28.53;;;13.40;99.90;;;;;;6044804;23;20384;-87
2022/01/01 05:08:27;;;;;;;80.97;29.60;;;13.30;99.90;;;;;;6043514;23;20884;-86
2022/01/01 05:11:06;;;;;;;86.50;35.60;;;13.30;99.90;;;;;;6071112;23;20393;-87
2022/01/01 05:13:36;;;;;;;81.50;35.67;;;13.30;99.90;;;;;;6069234;23;20388;-86
2022/01/01 05:16:13;;;;;;;82.43;30.48;;;13.30;99.90;;;;;;6069959;23;20365;-87
2022/01/01 05:19:16;;;;;;;82.90;30.97;;;13.30;99.90;;;;;;6045296;23;20141;-87
2022/01/01 05:22:06;;;;;;;80.97;31.20;;;13.30;99.90;;;;;;6069780;23;20379;-87
2022/01/01 05:24:31;;;;;;;89.17;37.97;;;13.20;99.90;;;;;;6068990;23;20730;-87
2022/01/01 05:27:14;;;;;;;84.30;40.60;;;13.20;99.90;;;;;;6044959;23;20384;-88
2022/01/01 05:29:45;;;;;;;83.28;39.10;;;13.20;99.90;;;;;;6069687;23;20133;-86
2022/01/01 05:32:18;;;;;;;83.93;34.73;;;13.30;99.90;;;;;;6044790;23;20136;-87
2022/01/01 05:34:43;;;;;;;85.03;31.47;;;13.30;99.90;;;;;;6044614;23;20479;-88
2022/01/01 05:37:15;;;;;;;84.50;27.80;;;13.30;99.90;;;;;;6045189;23;20434;-87
2022/01/01 05:39:46;;;;;;;83.90;31.65;;;13.30;99.90;;;;;;6070402;23;20171;-86
2022/01/01 05:42:17;;;;;;;79.33;33.50;;;13.30;99.90;;;;;;6070737;23;20151;-86
2022/01/01 05:44:53;;;;;;;81.93;31.83;;;13.30;99.90;;;;;;6070579;23;20478;-86
2022/01/01 05:47:32;;;;;;;82.27;28.47;;;13.30;99.90;;;;;;6046007;23;20132;-87
2022/01/01 05:50:00;;;;;;;77.63;25.70;;;13.30;99.90;;;;;;6070590;23;20403;-87
2022/01/01 05:52:26;;;;;;;80.77;28.90;;;13.30;99.90;;;;;;6069679;23;20737;-86
2022/01/01 05:54:57;;;;;;;83.47;31.30;;;13.30;99.90;;;;;;6068869;23;20438;-86
2022/01/01 06:00:40;;;;;;;89.90;48.00;;;13.40;99.90;;;;;;6068846;23;20431;-87
2022/01/01 06:03:11;;;;;;;82.55;39.67;;;13.40;99.90;;;;;;6043631;23;20381;-86
2022/01/01 06:05:51;;;;;;;86.00;50.13;;;13.40;99.90;;;;;;6043119;23;20152;-86
2022/01/01 06:08:23;;;;;;;94.13;60.77;;;13.40;99.90;;;;;;6043640;23;20450;-86
2022/01/01 06:10:52;;;;;;;95.35;78.65;;;13.40;99.90;;;;;;6068528;23;20423;-86
2022/01/01 06:13:54;;;;;;;101.03;84.07;;;13.40;99.90;;;;;;6042782;23;20144;-87
2022/01/01 06:16:33;;;;;;;;;;;;;;;;;;;;;
2022/01/01 06:19:13;;;;;;;99.53;88.50;;;13.50;99.90;;;;;;6068584;23;20520;-86
2022/01/01 06:21:58;;;;;;;122.85;110.75;;;13.40;99.90;;;;;;6043097;23;20722;-87
2022/01/01 06:24:32;;;;;;;125.20;112.43;;;13.40;99.90;;;;;;6043996;23;20521;-87
2022/01/01 06:27:22;;;;;;;102.95;88.10;;;13.40;99.90;;;;;;6067267;23;20182;-86
2022/01/01 06:29:54;;;;;;;121.33;109.33;;;13.40;99.90;;;;;;6069732;23;20136;-86
2022/01/01 06:32:24;;;;;;;103.37;92.30;;;13.50;99.90;;;;;;6068988;23;20407;-87
2022/01/01 06:35:05;;;;;;;116.05;104.43;;;13.40;99.90;;;;;;6043360;23;20494;-86
2022/01/01 06:37:54;;;;;;;122.32;110.55;;;13.40;99.90;;;;;;6042288;23;20202;-87
2022/01/01 06:40:29;;;;;;;131.50;119.27;;;13.30;99.90;;;;;;6043340;23;20152;-86
2022/01/01 06:43:12;;;;;;;118.37;106.70;;;13.40;99.90;;;;;;6042903;23;20383;-85
2022/01/01 06:45:38;;;;;;;110.60;98.70;;;13.40;99.90;;;;;;6066893;23;20380;-86
2022/01/01 06:48:29;;;;;;;137.13;124.70;;;13.40;99.90;;;;;;6067991;23;20372;-87
2022/01/01 06:51:01;;;;;;;162.17;148.93;;;13.40;99.90;;;;;;6045090;23;20442;-86
2022/01/01 06:53:38;;;;;;;161.23;148.07;;;13.40;99.90;;;;;;6127644;23;20385;-87
2022/01/01 06:56:07;;;;;;;169.97;156.17;;;13.40;99.90;;;;;;6102947;23;20381;-86
2022/01/01 06:58:49;;;;;;;182.00;168.13;;;13.40;99.90;;;;;;6126823;23;20370;-86
2022/01/01 07:01:14;;;;;;;161.47;148.30;;;13.40;99.90;;;;;;6102124;23;20158;-86
2022/01/01 07:03:40;;;;;;;181.73;167.77;;;13.40;99.90;;;;;;6128655;23;20922;-85
2022/01/01 07:06:29;;;;;;;171.60;158.23;;;13.40;99.90;;;;;;6102466;23;20158;-87
2022/01/01 07:09:11;;;;;;;187.33;173.23;;;13.40;99.90;;;;;;6102475;23;20731;-86
2022/01/01 07:11:58;;;;;;;168.43;155.00;;;13.40;99.90;;;;;;6128633;23;20395;-86
2022/01/01 07:14:42;;;;;;;159.77;146.37;;;13.40;99.90;;;;;;6101609;23;20437;-87
2022/01/01 07:17:08;;;;;;;157.40;144.00;;;13.40;99.90;;;;;;6102869;23;20387;-86
2022/01/01 07:19:47;;;;;;;154.37;141.47;;;13.40;99.90;;;;;;6101341;23;20925;-85
2022/01/01 07:22:27;;;;;;;146.40;133.10;;;13.40;99.90;;;;;;6101194;23;20378;-85
2022/01/01 07:25:00;;;;;;;174.07;160.33;;;13.40;99.90;;;;;;6091827;23;20406;-86
2022/01/01 07:27:40;;;;;;;179.33;165.40;;;13.40;99.90;;;;;;6100421;23;20469;-85
2022/01/01 07:30:23;;;;;;;166.02;152.38;;;13.40;99.90;;;;;;6100280;23;20437;-85
2022/01/01 07:33:22;;;;;;;;;;;;;;;;;;;;;
2022/01/01 07:36:22;;;;;;;144.90;132.13;;;13.40;99.90;;;;;;6129278;23;20441;-85
2022/01/01 07:38:47;;;;;;;151.37;138.50;;;13.50;99.90;;;;;;6094408;23;20374;-85
2022/01/01 07:41:29;;;;;;;133.43;121.13;;;13.40;99.90;;;;;;6124894;23;20382;-86
2022/01/01 07:44:31;;;;;;;128.37;116.20;;;13.50;99.90;;;;;;6099543;23;20616;-85
2022/01/01 07:47:04;;;;;;;141.00;128.10;;;13.50;99.90;;;;;;6125213;23;20734;-86
2022/01/01 07:49:43;;;;;;;139.77;126.57;;;13.40;99.90;;;;;;6125000;23;20375;-85
2022/01/01 08:41:30;;;;;;;158.37;144.93;;;13.60;99.90;;;;;;6123301;23;20522;-87
2022/01/01 08:47:03;;;;;;;159.70;146.17;;;13.70;99.90;;;;;;6065903;23;20371;-87
2022/01/01 08:49:43;;;;;;;179.40;165.57;;;13.80;99.90;;;;;;6100389;23;20421;-87
2022/01/01 08:52:12;;;;;;;199.87;184.70;;;13.70;99.90;;;;;;6101034;23;20391;-86
2022/01/01 08:55:36;;;;;;;138.67;126.13;;;13.70;99.90;;;;;;6087560;23;20484;-87
2022/01/01 08:58:15;;;;;;;154.37;141.37;;;13.80;99.90;;;;;;6127901;23;20366;-86
2022/01/01 09:00:56;;;;;;;135.97;123.60;;;13.80;99.90;;;;;;6098351;23;20379;-87
2022/01/01 09:03:41;;;;;;;;;;;;;;;;;;;;;
2022/01/01 09:06:11;;;;;;;142.60;129.87;;;13.80;99.90;;;;;;6123062;23;20736;-87
2022/01/01 09:08:51;;;;;;;136.20;123.60;;;13.90;99.90;;;;;;6121788;23;20383;-87
2022/01/01 09:11:20;;;;;;;139.70;127.13;;;13.80;99.90;;;;;;6099128;23;20807;-87
2022/01/01 09:13:57;;;;;;;156.97;143.23;;;13.80;99.90;;;;;;6097347;23;20478;-86
2022/01/01 09:16:39;;;;;;;115.60;103.93;;;13.90;99.90;;;;;;6099312;23;20753;-86
2022/01/01 09:19:19;;;;;;;119.10;107.17;;;13.90;99.90;;;;;;6099434;23;20709;-87
2022/01/01 09:21:53;;;;;;;116.67;104.60;;;13.90;99.90;;;;;;6100006;23;20456;-87
2022/01/01 09:24:31;;;;;;;;;;;;;;;;;;;;;
2022/01/01 09:27:21;;;;;;;150.73;137.50;;;14.00;99.90;;;;;;6126291;23;20753;-87
2022/01/01 09:29:47;;;;;;;167.13;153.50;;;13.90;99.90;;;;;;6125964;23;20676;-87
2022/01/01 09:32:25;;;;;;;183.43;169.10;;;13.90;99.90;;;;;;6099994;23;20410;-87
2022/01/01 09:34:51;;;;;;;164.30;150.73;;;13.90;99.90;;;;;;6125201;23;20727;-87
2022/01/01 09:37:46;;;;;;;143.50;130.67;;;13.90;99.90;;;;;;6125255;23;20424;-87
2022/01/01 09:40:18;;;;;;;122.73;110.70;;;14.00;99.90;;;;;;6095879;23;20423;-87
2022/01/01 09:43:03;;;;;;;94.37;71.83;;;14.10;99.90;;;;;;6099980;23;20433;-87
2022/01/01 09:49:59;;;;;;;95.30;75.00;;;14.20;99.90;;;;;;6148198;23;20397;-87
2022/01/01 09:53:14;;;;;;;98.83;78.63;;;14.10;99.90;;;;;;6124912;23;20374;-87
2022/01/01 09:56:09;;;;;;;94.00;68.23;;;14.20;99.90;;;;;;6092131;23;20752;-86
2022/01/01 09:59:21;;;;;;;96.33;79.90;;;14.30;99.90;;;;;;6098207;23;20696;-86
2022/01/01 10:02:05;;;;;;;89.57;57.57;;;14.30;99.90;;;;;;6124218;23;20362;-87
2022/01/01 10:05:09;;;;;;;88.87;56.47;;;14.40;99.90;;;;;;6098874;23;20398;-86
2022/01/01 10:08:12;;;;;;;99.10;86.30;;;14.40;99.90;;;;;;6067975;23;20370;-87
2022/01/01 10:10:43;;;;;;;101.40;86.37;;;14.30;99.90;;;;;;6011689;23;20436;-87
2022/01/01 10:14:07;;;;;;;;;;;;;;;;;;;;;
2022/01/01 10:17:35;;;;;;;113.90;102.37;;;14.50;99.90;;;;;;6039330;23;20452;-87
2022/01/01 10:20:52;;;;;;;106.43;95.13;;;14.40;99.90;;;;;;6055340;23;20740;-87
2022/01/01 10:29:51;;;;;;;103.70;77.63;;;14.50;99.90;;;;;;6154205;23;20437;-86
2022/01/01 10:32:51;;;;;;;89.60;54.00;;;14.60;99.90;;;;;;6155177;22;20366;-87
2022/01/01 10:35:20;;;;;;;84.40;46.33;;;14.70;99.90;;;;;;6270262;22;20398;-87
2022/01/01 10:38:21;;;;;;;89.70;61.03;;;14.70;99.90;;;;;;6227574;23;20367;-87
2022/01/01 10:40:50;;;;;;;92.27;66.20;;;14.60;99.90;;;;;;6220804;23;20877;-87
2022/01/01 10:44:08;;;;;;;90.73;60.33;;;14.60;99.90;;;;;;6226183;23;20402;-87
2022/01/01 10:46:59;;;;;;;103.60;80.73;;;14.60;99.90;;;;;;6216464;23;20378;-87
2022/01/01 10:50:03;;;;;;;97.70;77.90;;;14.60;99.90;;;;;;6226538;23;20673;-87
2022/01/01 10:52:56;;;;;;;128.17;115.83;;;14.60;99.90;;;;;;6130546;22;20844;-87
2022/01/01 10:55:25;;;;;;;101.60;89.97;;;14.60;99.90;;;;;;6223016;22;20397;-87
2022/01/01 10:58:32;;;;;;;104.80;89.13;;;14.60;99.90;;;;;;6221124;23;20453;-87
2022/01/01 11:01:49;;;;;;;152.20;139.07;;;14.80;99.90;;;;;;6225252;23;20442;-87
2022/01/01 11:07:17;;;;;;;132.67;120.13;;;14.70;99.90;;;;;;6151345;23;20417;-87
2022/01/01 11:10:22;;;;;;;145.20;131.90;;;14.70;99.90;;;;;;6152694;22;20425;-86
2022/01/01 11:13:00;;;;;;;98.63;82.90;;;14.70;99.90;;;;;;6256239;22;20401;-87
2022/01/01 11:15:54;;;;;;;169.07;155.30;;;14.70;99.90;;;;;;6201633;22;20391;-87
2022/01/01 11:22:02;;;;;;;142.80;129.67;;;14.60;99.90;;;;;;6123653;22;20381;-87
2022/01/01 11:24:47;;;;;;;147.67;134.30;;;14.70;99.90;;;;;;6123549;22;20378;-87
2022/01/01 11:27:34;;;;;;;114.23;102.33;;;14.80;99.90;;;;;;6226330;23;20878;-87
2022/01/01 11:30:14;;;;;;;;;;;;;;;;;;;;;
2022/01/01 11:36:32;;;;;;;101.10;87.90;;;14.80;99.90;;;;;;6123332;22;20363;-87
2022/01/01 11:39:35;;;;;;;130.83;118.67;;;14.80;99.90;;;;;;6224832;23;20758;-87
2022/01/01 11:42:15;;;;;;;97.10;83.00;;;14.70;99.90;;;;;;6128262;22;20381;-87
2022/01/01 11:44:53;;;;;;;113.37;101.70;;;14.80;99.90;;;;;;6221089;22;20405;-87
2022/01/01 11:47:22;;;;;;;150.00;136.83;;;14.80;99.90;;;;;;6224058;23;20380;-87
2022/01/01 11:50:37;;;;;;;183.03;168.00;;;14.80;99.90;;;;;;6225287;23;20383;-86
2022/01/01 11:53:09;;;;;;;263.13;245.80;;;14.70;99.90;;;;;;6126303;23;20385;-87
2022/01/01 11:56:29;;;;;;;246.23;229.13;;;14.60;99.90;;;;;;6130049;23;20377;-86
2022/01/01 11:59:27;;;;;;;234.13;218.33;;;14.60;99.90;;;;;;6124358;23;20700;-87
2022/01/01 12:02:34;;;;;;;269.80;252.03;;;14.60;99.90;;;;;;6123515;23;20378;-87
2022/01/01 12:05:29;;;;;;;239.70;223.03;;;14.60;99.90;;;;;;6200953;23;20430;-86
2022/01/01 12:08:31;;;;;;;;;;;;;;;;;;;;;
2022/01/01 12:12:01;;;;;;;;;;;;;;;;;;;;;
2022/01/01 12:18:46;;;;;;;;;;;;;;;;;;;;;
2022/01/01 12:26:01;;;;;;;204.67;189.77;;;14.70;99.90;;;;;;6153460;23;20425;-87
2022/01/01 12:32:44;;;;;;;213.33;198.33;;;14.80;99.90;;;;;;5915714;23;20536;-87
2022/01/01 12:39:40;;;;;;;;;;;;;;;;;;;;;
2022/01/01 12:43:03;;;;;;;133.83;121.23;;;14.70;99.90;;;;;;5906248;24;20484;-86
2022/01/01 12:46:03;;;;;;;99.83;76.53;;;14.60;99.90;;;;;;5926861;24;20389;-86
2022/01/01 12:51:49;;;;;;;138.03;125.60;;;14.70;99.90;;;;;;6000741;23;20911;-84
2022/01/01 12:54:18;;;;;;;149.07;135.73;;;14.80;99.90;;;;;;6099674;23;20452;-84
2022/01/01 12:56:46;;;;;;;143.77;131.00;;;14.90;99.90;;;;;;6125548;23;20359;-84
2022/01/01 12:59:14;;;;;;;189.13;174.93;;;14.80;99.90;;;;;;6125489;23;20445;-84
2022/01/01 13:01:44;;;;;;;155.10;141.87;;;14.80;99.90;;;;;;6125712;23;20397;-84
2022/01/01 13:04:18;;;;;;;113.47;101.57;;;14.90;99.90;;;;;;6100023;23;20405;-84
2022/01/01 13:06:50;;;;;;;117.93;106.43;;;14.80;99.90;;;;;;6100021;23;20421;-84
2022/01/01 13:09:18;;;;;;;131.37;119.37;;;14.80;99.90;;;;;;6099906;23;20367;-84
2022/01/01 13:11:48;;;;;;;132.90;120.87;;;14.90;99.90;;;;;;6125367;23;20410;-84
2022/01/01 13:14:15;;;;;;;120.63;109.13;;;14.90;99.90;;;;;;6125965;23;20383;-84
2022/01/01 13:16:42;;;;;;;180.03;166.27;;;14.90;99.90;;;;;;6126404;23;20377;-84
2022/01/01 13:19:08;;;;;;;179.73;165.70;;;14.90;99.90;;;;;;6126504;23;20466;-84
2022/01/01 13:21:34;;;;;;;203.77;189.20;;;14.90;99.90;;;;;;6126282;23;20363;-84
2022/01/01 13:24:00;;;;;;;237.00;220.67;;;15.00;99.90;;;;;;6100121;23;20464;-84
2022/01/01 13:26:26;;;;;;;251.47;235.07;;;15.10;99.90;;;;;;6100449;23;20463;-84
2022/01/01 13:28:55;;;;;;;251.00;234.77;;;15.20;99.90;;;;;;6100039;23;20409;-84
2022/01/01 13:31:21;;;;;;;254.30;237.70;;;15.10;99.90;;;;;;6125338;23;20406;-84
2022/01/01 13:33:52;;;;;;;265.50;248.60;;;15.10;99.90;;;;;;6125531;23;20398;-84
2022/01/01 13:36:48;;;;;;;254.20;237.53;;;15.00;99.90;;;;;;6099534;23;20375;-84
2022/01/01 13:39:16;;;;;;;259.47;241.83;;;15.10;99.90;;;;;;6081630;23;20383;-84
2022/01/01 13:42:01;;;;;;;224.67;209.10;;;15.10;99.90;;;;;;6098602;23;20417;-84
2022/01/01 13:44:34;;;;;;;231.53;215.33;;;15.10;99.90;;;;;;6099813;23;20417;-84
2022/01/01 13:47:09;;;;;;;254.70;237.50;;;15.00;99.90;;;;;;6099324;23;20706;-84
2022/01/01 13:49:47;;;;;;;264.10;247.00;;;15.10;99.90;;;;;;6098759;23;20389;-84
2022/01/01 13:52:23;;;;;;;234.63;218.77;;;15.00;99.90;;;;;;6124657;23;20433;-84
2022/01/01 13:54:58;;;;;;;229.63;214.03;;;15.00;99.90;;;;;;6098642;23;20406;-84
2022/01/01 13:57:27;;;;;;;227.00;211.47;;;15.00;99.90;;;;;;6100012;23;20393;-84
2022/01/01 13:59:54;;;;;;;217.83;202.20;;;14.90;99.90;;;;;;6098751;23;20409;-84
2022/01/01 14:02:26;;;;;;;234.40;218.70;;;14.90;99.90;;;;;;6099187;23;20397;-84
2022/01/01 14:04:56;;;;;;;239.67;223.63;;;14.90;99.90;;;;;;6100481;23;20402;-84
2022/01/01 14:07:22;;;;;;;231.20;215.17;;;14.80;99.90;;;;;;6125959;23;20410;-84
2022/01/01 14:10:05;;;;;;;225.10;209.43;;;14.70;99.90;;;;;;6126366;23;20366;-84
2022/01/01 14:12:35;;;;;;;229.63;214.10;;;14.80;99.90;;;;;;6100594;23;20159;-84
2022/01/01 14:15:13;;;;;;;227.33;211.67;;;14.70;99.90;;;;;;6099676;23;20395;-84
2022/01/01 14:17:58;;;;;;;194.37;179.87;;;14.70;99.90;;;;;;6126215;23;20430;-84
2022/01/01 14:20:29;;;;;;;184.43;170.43;;;14.60;99.90;;;;;;6126356;23;20352;-84
2022/01/01 14:22:56;;;;;;;144.53;131.90;;;14.50;99.90;;;;;;6099622;23;20371;-84
2022/01/01 14:25:25;;;;;;;106.90;89.00;;;14.40;99.90;;;;;;6126154;23;20383;-84
2022/01/01 14:27:51;;;;;;;93.27;72.70;;;14.30;99.90;;;;;;6126381;23;20367;-84
2022/01/01 14:30:17;;;;;;;88.63;61.47;;;14.20;99.90;;;;;;6100596;23;20501;-84
2022/01/01 14:32:45;;;;;;;82.47;45.43;;;14.20;99.90;;;;;;6126454;23;20430;-84
2022/01/01 14:35:12;;;;;;;83.77;40.73;;;14.10;99.90;;;;;;6126031;23;20770;-84
2022/01/01 14:37:38;;;;;;;84.63;46.50;;;14.20;99.90;;;;;;6100000;23;20377;-84
2022/01/01 14:40:04;;;;;;;81.97;42.67;;;14.10;99.90;;;;;;6099880;23;20386;-84
2022/01/01 14:42:30;;;;;;;85.70;49.63;;;14.10;99.90;;;;;;6126620;23;20885;-84
2022/01/01 14:44:56;;;;;;;93.57;61.43;;;14.00;99.90;;;;;;6126018;23;20395;-84
2022/01/01 14:47:28;;;;;;;113.33;95.57;;;14.00;99.90;;;;;;6099396;23;20147;-84
2022/01/01 14:49:59;;;;;;;95.43;74.07;;;13.90;99.90;;;;;;6099996;23;20496;-84
2022/01/01 14:52:37;;;;;;;101.60;76.50;;;13.90;99.90;;;;;;6100433;23;20482;-84
2022/01/01 14:55:34;;;;;;;299.67;280.40;;;13.80;99.90;;;;;;6124841;23;20382;-84
2022/01/01 14:58:01;;;;;;;159.57;145.87;;;13.70;99.90;;;;;;6075597;23;20450;-84
2022/01/01 15:00:28;;;;;;;243.97;226.33;;;13.70;99.90;;;;;;6101066;23;20917;-84
2022/01/01 15:02:54;;;;;;;138.77;125.63;;;13.70;99.90;;;;;;6125167;23;20421;-84
2022/01/01 15:05:21;;;;;;;155.03;140.93;;;13.70;99.90;;;;;;6125615;23;20412;-84
2022/01/01 15:07:48;;;;;;;136.67;123.20;;;13.70;99.90;;;;;;6125115;23;20391;-84
2022/01/01 15:10:18;;;;;;;202.00;186.60;;;13.70;99.90;;;;;;6100057;23;20378;-84
2022/01/01 15:12:45;;;;;;;226.97;209.80;;;13.60;99.90;;;;;;6125485;23;20347;-84
2022/01/01 15:15:11;;;;;;;230.18;212.98;;;13.60;99.90;;;;;;6098723;23;20403;-84